Time;durP1;ratioP1;P1;durP2;ratioP2;P2;SDS_P1;SDS_P2;PMS_P1;PMS_P2;Temp;Humidity;BMP_temperature;BMP_pressure;BME280_temperature;BME280_humidity;BME280_pressure;Samples;Min_cycle;Max_cycle;Signal;HPM_P1;HPM_P2
2022/11/14 00:01:41;;;;;;;;;;;;;;;8.81;90.64;101846.13;116137;1295;22551;-70
2022/11/14 00:04:28;;;;;;;;;;;;;;;8.82;90.65;101843.17;116153;1306;22432;-71
2022/11/14 00:07:16;;;;;;;;;;;;;;;8.81;90.61;101847.02;116136;1284;22509;-69
2022/11/14 00:10:03;;;;;;;;;;;;;;;8.78;90.49;101851.55;116168;1298;22586;-70
2022/11/14 00:12:51;;;;;;;;;;;;;;;8.74;90.57;101848.09;116135;1304;22454;-70
2022/11/14 00:15:38;;;;;;;;;;;;;;;8.71;90.49;101844.63;116191;1287;22458;-68
2022/11/14 00:18:28;;;;;;;;;;;;;;;8.70;90.32;101842.20;116130;1306;22391;-68
2022/11/14 00:21:18;;;;;;;;;;;;;;;8.72;90.61;101838.54;116141;1306;22453;-70
2022/11/14 00:24:14;;;;;;;;;;;;;;;8.77;90.75;101841.64;116184;1286;25387;-70
2022/11/14 00:27:05;;;;;;;;;;;;;;;8.81;90.58;101840.73;116156;1284;25398;-70
2022/11/14 00:29:53;;;;;;;;;;;;;;;8.81;90.61;101840.90;116218;1280;25286;-70
2022/11/14 00:32:43;;;;;;;;;;;;;;;8.81;90.82;101839.52;116201;1281;22412;-68
2022/11/14 00:35:34;;;;;;;;;;;;;;;8.78;90.61;101835.55;116207;1287;22452;-69
2022/11/14 00:38:23;;;;;;;;;;;;;;;8.75;90.65;101833.30;116214;1293;22459;-70
2022/11/14 00:41:11;;;;;;;;;;;;;;;8.72;90.59;101837.32;116166;1287;22433;-70
2022/11/14 00:43:58;;;;;;;;;;;;;;;8.67;90.41;101837.19;116212;1302;24270;-70
2022/11/14 00:46:49;;;;;;;;;;;;;;;8.64;90.41;101831.45;116194;1294;24852;-70
2022/11/14 00:49:40;;;;;;;;;;;;;;;8.64;90.49;101827.30;116168;1306;22591;-70
2022/11/14 00:52:27;;;;;;;;;;;;;;;8.66;90.53;101832.14;116175;1299;25357;-68
2022/11/14 00:55:20;;;;;;;;;;;;;;;8.70;90.96;101824.12;116184;1287;24252;-70
2022/11/14 00:58:08;;;;;;;;;;;;;;;8.75;90.81;101819.02;116183;1295;22461;-70
2022/11/14 01:00:56;;;;;;;;;;;;;;;8.75;90.72;101814.85;116175;1302;22438;-70
2022/11/14 01:03:52;;;;;;;;;;;;;;;8.74;90.59;101818.86;116182;1286;22506;-70
2022/11/14 01:06:42;;;;;;;;;;;;;;;8.73;90.69;101812.62;116142;1306;22624;-70
2022/11/14 01:09:32;;;;;;;;;;;;;;;8.75;90.80;101810.67;116195;1284;22786;-70
2022/11/14 01:12:21;;;;;;;;;;;;;;;8.72;90.50;101809.14;116209;1300;22547;-70
2022/11/14 01:15:11;;;;;;;;;;;;;;;8.65;90.32;101809.19;116171;1305;22464;-69
2022/11/14 01:17:58;;;;;;;;;;;;;;;8.59;90.20;101807.33;116171;1304;22439;-70
2022/11/14 01:20:50;;;;;;;;;;;;;;;8.55;90.07;101804.55;116156;1306;22450;-69
2022/11/14 01:23:37;;;;;;;;;;;;;;;8.51;90.10;101796.92;116243;1305;22437;-70
2022/11/14 01:26:27;;;;;;;;;;;;;;;8.54;90.35;101793.44;116163;1306;25187;-69
2022/11/14 01:29:14;;;;;;;;;;;;;;;8.58;90.49;101793.77;116182;1291;22637;-69
2022/11/14 01:32:01;;;;;;;;;;;;;;;8.61;90.43;101790.95;116186;1306;23945;-70
2022/11/14 01:34:49;;;;;;;;;;;;;;;8.63;90.60;101790.41;116132;1297;22469;-70
2022/11/14 01:37:36;;;;;;;;;;;;;;;8.63;90.55;101789.73;116168;1300;22455;-70
2022/11/14 01:40:27;;;;;;;;;;;;;;;8.61;90.24;101788.34;116178;1293;22754;-70
2022/11/14 01:43:44;;;;;;;;;;;;;;;8.58;90.29;101782.98;116199;1287;25358;-70
2022/11/14 01:46:33;;;;;;;;;;;;;;;8.57;90.13;101781.77;116164;1306;22419;-70
2022/11/14 01:49:25;;;;;;;;;;;;;;;8.56;90.25;101779.15;116191;1305;22525;-70
2022/11/14 01:52:16;;;;;;;;;;;;;;;8.59;90.28;101775.84;116159;1296;22493;-70
2022/11/14 01:55:07;;;;;;;;;;;;;;;8.60;90.03;101773.39;116242;1301;22486;-68
2022/11/14 01:58:00;;;;;;;;;;;;;;;8.56;89.76;101764.20;116220;1306;22454;-69
2022/11/14 02:00:49;;;;;;;;;;;;;;;8.52;90.06;101769.63;116270;1306;22517;-69
2022/11/14 02:03:38;;;;;;;;;;;;;;;8.50;90.20;101768.95;116314;1287;22450;-70
2022/11/14 02:06:29;;;;;;;;;;;;;;;8.48;90.34;101765.83;116221;1306;22401;-68
2022/11/14 02:09:16;;;;;;;;;;;;;;;8.46;90.46;101768.44;116224;1291;25230;-71
2022/11/14 02:12:08;;;;;;;;;;;;;;;8.46;90.37;101766.88;116204;1306;22439;-70
2022/11/14 02:14:56;;;;;;;;;;;;;;;8.46;90.28;101761.30;116178;1294;23833;-69
2022/11/14 02:17:46;;;;;;;;;;;;;;;8.50;90.75;101761.98;116183;1306;22406;-70
2022/11/14 02:20:36;;;;;;;;;;;;;;;8.57;90.68;101758.11;116217;1284;22445;-68
2022/11/14 02:23:28;;;;;;;;;;;;;;;8.62;90.65;101754.06;116169;1305;22471;-70
2022/11/14 02:26:18;;;;;;;;;;;;;;;8.64;90.61;101755.45;116098;1285;22456;-70
2022/11/14 02:29:09;;;;;;;;;;;;;;;8.63;90.37;101753.54;116210;1287;22451;-70
2022/11/14 02:31:59;;;;;;;;;;;;;;;8.59;90.29;101749.23;116180;1279;22460;-69
2022/11/14 02:34:50;;;;;;;;;;;;;;;8.56;90.26;101750.83;116173;1294;22458;-69
2022/11/14 02:37:37;;;;;;;;;;;;;;;8.51;90.41;101746.33;116150;1304;25346;-70
2022/11/14 02:40:27;;;;;;;;;;;;;;;8.50;90.36;101747.02;116191;1305;24295;-69
2022/11/14 02:43:15;;;;;;;;;;;;;;;8.50;90.32;101743.19;116225;1306;22421;-70
2022/11/14 02:46:04;;;;;;;;;;;;;;;8.52;90.48;101742.84;116186;1287;22466;-68
2022/11/14 02:48:51;;;;;;;;;;;;;;;8.53;90.32;101740.92;116185;1286;22523;-69
2022/11/14 02:51:45;;;;;;;;;;;;;;;8.55;90.41;101737.42;116154;1306;22445;-69
2022/11/14 02:54:33;;;;;;;;;;;;;;;8.55;90.68;101736.02;116224;1291;22440;-70
2022/11/14 02:57:22;;;;;;;;;;;;;;;8.53;90.60;101732.57;116163;1305;22391;-70
2022/11/14 03:00:11;;;;;;;;;;;;;;;8.50;90.55;101732.06;116159;1305;22484;-69
2022/11/14 03:02:58;;;;;;;;;;;;;;;8.44;90.40;101730.38;116160;1291;22447;-69
2022/11/14 03:05:53;;;;;;;;;;;;;;;8.36;90.56;101729.04;116140;1285;22551;-69
2022/11/14 03:08:41;;;;;;;;;;;;;;;8.29;90.65;101728.54;116216;1285;22716;-68
2022/11/14 03:11:35;;;;;;;;;;;;;;;8.26;90.85;101728.89;116120;1306;24390;-68
2022/11/14 03:14:24;;;;;;;;;;;;;;;8.26;90.83;101720.38;116180;1298;22541;-67
2022/11/14 03:17:13;;;;;;;;;;;;;;;8.29;91.21;101721.06;116124;1298;22453;-69
2022/11/14 03:20:00;;;;;;;;;;;;;;;8.33;91.29;101724.67;116160;1306;22439;-69
2022/11/14 03:22:50;;;;;;;;;;;;;;;8.38;91.46;101722.41;116150;1293;25426;-70
2022/11/14 03:25:39;;;;;;;;;;;;;;;8.40;91.42;101719.98;116202;1306;22412;-68
2022/11/14 03:28:29;;;;;;;;;;;;;;;8.41;91.42;101718.91;116200;1293;22454;-68
2022/11/14 03:31:22;;;;;;;;;;;;;;;8.39;91.30;101716.84;116193;1299;25346;-69
2022/11/14 03:34:15;;;;;;;;;;;;;;;8.36;91.20;101716.33;116127;1305;22434;-68
2022/11/14 03:37:03;;;;;;;;;;;;;;;8.33;91.30;101719.13;116194;1306;22405;-70
2022/11/14 03:39:52;;;;;;;;;;;;;;;8.33;91.34;101717.22;116209;1283;22445;-69
2022/11/14 03:42:44;;;;;;;;;;;;;;;8.31;91.19;101714.27;116209;1300;22444;-69
2022/11/14 03:45:34;;;;;;;;;;;;;;;8.31;91.40;101712.17;116188;1306;22458;-69
2022/11/14 03:48:24;;;;;;;;;;;;;;;8.33;91.28;101711.48;116149;1305;22450;-69
2022/11/14 03:51:11;;;;;;;;;;;;;;;8.34;91.46;101709.90;116076;1294;23058;-70
2022/11/14 03:53:58;;;;;;;;;;;;;;;8.36;91.68;101706.93;116179;1302;22433;-69
2022/11/14 03:56:46;;;;;;;;;;;;;;;8.39;91.82;101703.47;116127;1306;22389;-69
2022/11/14 03:59:34;;;;;;;;;;;;;;;8.39;91.62;101702.41;116198;1306;22827;-68
2022/11/14 04:02:21;;;;;;;;;;;;;;;8.39;91.47;101696.86;116124;1279;22435;-70
2022/11/14 04:05:09;;;;;;;;;;;;;;;8.38;91.40;101693.73;116146;1293;22438;-67
2022/11/14 04:07:57;;;;;;;;;;;;;;;8.37;91.22;101694.07;115846;1305;396573;-70
2022/11/14 04:10:48;;;;;;;;;;;;;;;8.38;91.33;101691.81;116171;1301;22448;-69
2022/11/14 04:13:40;;;;;;;;;;;;;;;8.43;91.49;101691.08;116207;1305;22651;-69
2022/11/14 04:16:30;;;;;;;;;;;;;;;8.46;91.67;101690.02;116169;1298;22443;-69
2022/11/14 04:19:18;;;;;;;;;;;;;;;8.47;91.40;101691.57;116170;1302;22448;-69
2022/11/14 04:22:12;;;;;;;;;;;;;;;8.43;91.16;101691.78;116160;1305;24247;-70
2022/11/14 04:24:59;;;;;;;;;;;;;;;8.35;91.07;101693.02;116184;1306;22398;-68
2022/11/14 04:27:50;;;;;;;;;;;;;;;8.29;91.00;101689.08;116152;1306;22394;-68
2022/11/14 04:30:38;;;;;;;;;;;;;;;8.23;91.23;101682.67;116173;1291;22502;-69
2022/11/14 04:33:28;;;;;;;;;;;;;;;8.19;91.18;101681.16;116196;1306;22442;-69
2022/11/14 04:36:18;;;;;;;;;;;;;;;8.20;91.53;101678.89;116127;1284;25352;-69
2022/11/14 04:39:06;;;;;;;;;;;;;;;8.21;91.41;101677.30;116172;1299;22446;-70
2022/11/14 04:41:54;;;;;;;;;;;;;;;8.24;91.51;101673.46;116145;1300;22532;-69
2022/11/14 04:44:45;;;;;;;;;;;;;;;8.30;91.64;101673.77;116180;1291;22790;-69
2022/11/14 04:47:34;;;;;;;;;;;;;;;8.33;91.51;101675.14;116173;1285;22602;-68
2022/11/14 04:50:25;;;;;;;;;;;;;;;8.32;91.51;101673.91;116156;1305;22461;-68
2022/11/14 04:53:13;;;;;;;;;;;;;;;8.33;91.55;101673.92;116139;1291;22457;-69
2022/11/14 04:56:00;;;;;;;;;;;;;;;8.31;91.44;101671.31;116151;1279;25881;-69
2022/11/14 04:58:48;;;;;;;;;;;;;;;8.28;91.18;101669.62;116175;1305;24278;-68
2022/11/14 05:01:39;;;;;;;;;;;;;;;8.27;91.05;101666.49;116138;1291;22452;-70
2022/11/14 05:04:32;;;;;;;;;;;;;;;8.30;91.17;101669.25;116152;1293;22393;-69
2022/11/14 05:07:24;;;;;;;;;;;;;;;8.32;91.13;101670.09;116131;1306;25825;-69
2022/11/14 05:10:14;;;;;;;;;;;;;;;8.29;90.86;101666.13;116213;1298;22532;-69
2022/11/14 05:13:07;;;;;;;;;;;;;;;8.27;90.98;101659.70;116125;1306;22413;-69
2022/11/14 05:15:55;;;;;;;;;;;;;;;8.24;90.90;101660.25;116112;1306;22522;-69
2022/11/14 05:18:43;;;;;;;;;;;;;;;8.21;90.69;101664.78;116186;1306;22467;-70
2022/11/14 05:21:30;;;;;;;;;;;;;;;8.21;90.82;101662.70;116165;1306;22423;-69
2022/11/14 05:24:20;;;;;;;;;;;;;;;8.23;91.04;101656.95;116168;1277;22463;-69
2022/11/14 05:27:10;;;;;;;;;;;;;;;8.28;91.18;101661.44;116166;1288;25220;-70
2022/11/14 05:30:07;;;;;;;;;;;;;;;8.32;91.21;101662.45;116137;1298;22532;-68
2022/11/14 05:32:57;;;;;;;;;;;;;;;8.31;90.94;101656.71;116142;1298;22452;-70
2022/11/14 05:35:46;;;;;;;;;;;;;;;8.28;90.82;101653.80;116183;1279;25355;-70
2022/11/14 05:38:33;;;;;;;;;;;;;;;8.25;90.71;101652.59;116191;1298;25226;-70
2022/11/14 05:41:20;;;;;;;;;;;;;;;8.23;90.55;101653.13;116189;1280;22488;-69
2022/11/14 05:44:11;;;;;;;;;;;;;;;8.22;90.37;101655.04;116218;1285;22472;-69
2022/11/14 05:47:00;;;;;;;;;;;;;;;8.24;90.65;101656.60;116233;1306;22604;-69
2022/11/14 05:49:48;;;;;;;;;;;;;;;8.26;90.58;101659.18;116239;1284;22555;-69
2022/11/14 05:52:37;;;;;;;;;;;;;;;8.25;90.57;101659.55;116233;1280;22974;-67
2022/11/14 05:55:25;;;;;;;;;;;;;;;8.22;90.34;101668.61;116197;1282;22490;-68
2022/11/14 05:58:12;;;;;;;;;;;;;;;8.19;90.54;101666.38;116218;1306;22601;-69
2022/11/14 06:01:06;;;;;;;;;;;;;;;8.16;90.56;101664.82;116187;1305;22436;-69
2022/11/14 06:03:57;;;;;;;;;;;;;;;8.12;90.37;101660.68;116213;1285;22459;-69
2022/11/14 06:06:52;;;;;;;;;;;;;;;8.11;90.33;101660.00;116176;1306;22465;-68
2022/11/14 06:09:42;;;;;;;;;;;;;;;8.12;90.43;101658.94;116177;1306;22554;-69
2022/11/14 06:12:30;;;;;;;;;;;;;;;8.18;90.71;101664.13;116179;1306;22415;-69
2022/11/14 06:15:20;;;;;;;;;;;;;;;8.22;90.68;101666.88;116172;1287;24269;-70
2022/11/14 06:18:13;;;;;;;;;;;;;;;8.22;90.33;101667.91;116181;1287;22464;-71
2022/11/14 06:21:02;;;;;;;;;;;;;;;8.21;90.29;101669.83;116180;1306;22438;-71
2022/11/14 06:23:49;;;;;;;;;;;;;;;8.21;90.21;101670.88;116232;1284;22626;-71
2022/11/14 06:26:42;;;;;;;;;;;;;;;8.19;90.32;101670.72;116187;1306;22457;-70
2022/11/14 06:29:32;;;;;;;;;;;;;;;8.16;90.13;101671.25;116228;1287;22524;-70
2022/11/14 06:32:20;;;;;;;;;;;;;;;8.14;89.89;101675.27;116182;1283;22454;-70
2022/11/14 06:35:11;;;;;;;;;;;;;;;8.10;89.92;101670.61;116286;1285;22527;-70
2022/11/14 06:37:59;;;;;;;;;;;;;;;8.11;90.04;101673.90;116189;1286;24512;-71
2022/11/14 06:40:49;;;;;;;;;;;;;;;8.14;90.21;101678.59;116212;1276;22460;-69
2022/11/14 06:43:41;;;;;;;;;;;;;;;8.18;90.60;101679.58;116256;1287;25437;-70
2022/11/14 06:46:29;;;;;;;;;;;;;;;8.26;90.66;101677.63;116130;1306;22488;-68
2022/11/14 06:49:16;;;;;;;;;;;;;;;8.26;90.19;101678.14;116187;1306;22452;-70
2022/11/14 06:52:07;;;;;;;;;;;;;;;8.25;90.20;101677.80;116155;1298;22390;-69
2022/11/14 06:54:56;;;;;;;;;;;;;;;8.26;90.15;101682.14;116179;1287;24478;-70
2022/11/14 06:57:43;;;;;;;;;;;;;;;8.30;90.06;101679.15;116186;1286;22460;-71
2022/11/14 07:00:30;;;;;;;;;;;;;;;8.35;89.97;101679.98;116201;1287;22461;-69
2022/11/14 07:03:17;;;;;;;;;;;;;;;8.39;89.96;101681.04;116195;1306;22440;-70
2022/11/14 07:06:05;;;;;;;;;;;;;;;8.41;89.82;101678.21;116228;1306;22526;-69
2022/11/14 07:08:55;;;;;;;;;;;;;;;8.44;89.80;101677.70;116175;1287;22470;-72
2022/11/14 07:11:45;;;;;;;;;;;;;;;8.42;89.49;101679.80;116239;1306;22600;-67
2022/11/14 07:14:38;;;;;;;;;;;;;;;8.43;89.41;101681.70;116226;1283;22442;-68
2022/11/14 07:17:27;;;;;;;;;;;;;;;8.38;89.03;101680.51;116160;1287;22583;-69
2022/11/14 07:20:24;;;;;;;;;;;;;;;8.36;88.62;101678.23;116245;1300;22533;-68
2022/11/14 07:23:11;;;;;;;;;;;;;;;8.34;88.36;101677.40;116227;1296;22761;-69
2022/11/14 07:26:03;;;;;;;;;;;;;;;8.33;88.55;101674.27;116141;1280;22625;-70
2022/11/14 07:28:53;;;;;;;;;;;;;;;8.34;88.39;101673.05;116193;1292;22417;-70
2022/11/14 07:31:41;;;;;;;;;;;;;;;8.29;88.29;101672.04;116076;1298;25372;-70
2022/11/14 07:34:29;;;;;;;;;;;;;;;8.26;88.53;101669.45;116150;1293;22435;-71
2022/11/14 07:37:19;;;;;;;;;;;;;;;8.24;88.38;101675.21;116106;1287;22518;-71
2022/11/14 07:40:08;;;;;;;;;;;;;;;8.21;88.44;101673.99;116130;1287;25916;-70
2022/11/14 07:43:04;;;;;;;;;;;;;;;8.21;88.55;101668.78;116137;1293;22467;-70
2022/11/14 07:45:54;;;;;;;;;;;;;;;8.22;88.50;101667.04;116163;1278;22443;-70
2022/11/14 07:48:44;;;;;;;;;;;;;;;8.25;88.67;101665.46;116149;1305;22452;-70
2022/11/14 07:51:31;;;;;;;;;;;;;;;8.27;88.49;101668.05;116114;1306;24279;-70
2022/11/14 07:54:23;;;;;;;;;;;;;;;8.26;88.17;101666.14;116174;1286;22448;-69
2022/11/14 07:57:13;;;;;;;;;;;;;;;8.24;88.35;101663.20;116183;1306;22533;-70
2022/11/14 08:00:00;;;;;;;;;;;;;;;8.22;88.40;101665.30;116170;1284;22466;-70
2022/11/14 08:02:50;;;;;;;;;;;;;;;8.19;88.30;101661.67;116083;1306;22426;-70
2022/11/14 08:05:38;;;;;;;;;;;;;;;8.16;88.15;101663.27;116193;1287;25397;-70
2022/11/14 08:08:25;;;;;;;;;;;;;;;8.12;88.09;101659.30;116203;1306;24261;-70
2022/11/14 08:11:12;;;;;;;;;;;;;;;8.14;88.12;101663.46;116168;1294;22649;-69
2022/11/14 08:14:00;;;;;;;;;;;;;;;8.18;88.24;101658.90;116211;1287;24295;-70
2022/11/14 08:16:48;;;;;;;;;;;;;;;8.24;88.34;101652.94;116154;1306;24411;-70
2022/11/14 08:19:36;;;;;;;;;;;;;;;8.30;87.70;101653.25;116241;1294;22754;-69
2022/11/14 08:22:25;;;;;;;;;;;;;;;8.30;87.47;101651.51;116191;1284;22460;-70
2022/11/14 08:25:13;;;;;;;;;;;;;;;8.24;86.74;101653.47;116224;1306;22427;-71
2022/11/14 08:28:06;;;;;;;;;;;;;;;8.18;86.64;101648.30;116172;1306;22436;-70
2022/11/14 08:30:56;;;;;;;;;;;;;;;8.16;86.75;101644.14;116126;1296;25352;-71
2022/11/14 08:33:49;;;;;;;;;;;;;;;8.18;86.92;101640.31;116158;1293;22442;-70
2022/11/14 08:36:39;;;;;;;;;;;;;;;8.21;86.88;101640.96;116118;1301;25382;-71
2022/11/14 08:39:27;;;;;;;;;;;;;;;8.21;86.91;101635.75;116177;1293;25416;-69
2022/11/14 08:42:17;;;;;;;;;;;;;;;8.23;87.07;101635.91;116162;1287;22434;-69
2022/11/14 08:45:04;;;;;;;;;;;;;;;8.25;87.18;101635.38;116210;1276;22435;-69
2022/11/14 08:47:58;;;;;;;;;;;;;;;8.25;87.05;101633.83;116129;1296;22438;-69
2022/11/14 08:50:47;;;;;;;;;;;;;;;8.26;87.17;101630.32;116243;1284;22486;-70
2022/11/14 08:53:37;;;;;;;;;;;;;;;8.23;87.08;101632.97;116236;1292;24381;-69
2022/11/14 08:56:24;;;;;;;;;;;;;;;8.20;86.60;101623.42;116162;1291;24390;-68
2022/11/14 08:59:11;;;;;;;;;;;;;;;8.21;86.88;101625.15;116170;1306;22433;-70
2022/11/14 09:02:01;;;;;;;;;;;;;;;8.24;87.00;101624.61;116117;1306;22441;-70
2022/11/14 09:04:49;;;;;;;;;;;;;;;8.32;86.89;101616.55;116177;1298;22442;-69
2022/11/14 09:07:38;;;;;;;;;;;;;;;8.38;87.21;101618.25;116143;1297;22462;-68
2022/11/14 09:10:29;;;;;;;;;;;;;;;8.45;87.01;101615.59;116153;1303;22460;-70
2022/11/14 09:13:19;;;;;;;;;;;;;;;8.47;86.65;101614.02;116166;1294;22392;-70
2022/11/14 09:16:07;;;;;;;;;;;;;;;8.51;86.54;101610.84;116166;1306;22448;-68
2022/11/14 09:18:54;;;;;;;;;;;;;;;8.56;86.66;101604.70;116215;1284;22449;-69
2022/11/14 09:21:41;;;;;;;;;;;;;;;8.56;86.27;101600.69;116210;1287;22476;-69
2022/11/14 09:24:31;;;;;;;;;;;;;;;8.53;85.30;101599.34;116186;1306;22427;-69
2022/11/14 09:27:22;;;;;;;;;;;;;;;8.51;85.32;101595.70;116132;1288;22826;-70
2022/11/14 09:30:12;;;;;;;;;;;;;;;8.50;84.67;101595.71;116168;1294;22731;-70
2022/11/14 09:33:04;;;;;;;;;;;;;;;8.50;85.09;101590.32;116101;1291;24303;-69
2022/11/14 09:36:02;;;;;;;;;;;;;;;8.54;85.21;101590.64;116068;1290;22450;-69
2022/11/14 09:38:50;;;;;;;;;;;;;;;8.55;84.96;101588.54;116148;1306;22670;-69
2022/11/14 09:41:46;;;;;;;;;;;;;;;8.51;84.48;101587.89;116121;1281;22406;-69
2022/11/14 09:44:58;;;;;;;;;;;;;;;8.47;84.84;101590.36;116180;1306;24243;-70
2022/11/14 09:47:48;;;;;;;;;;;;;;;8.41;84.57;101589.20;116152;1281;22467;-69
2022/11/14 09:50:40;;;;;;;;;;;;;;;8.38;84.70;101586.11;116208;1306;22452;-70
2022/11/14 09:53:34;;;;;;;;;;;;;;;8.37;84.69;101584.20;116226;1279;22448;-69
2022/11/14 09:56:26;;;;;;;;;;;;;;;8.36;84.92;101582.95;116154;1293;22445;-70
2022/11/14 09:59:13;;;;;;;;;;;;;;;8.35;85.06;101580.70;116227;1287;22483;-70
2022/11/14 10:02:04;;;;;;;;;;;;;;;8.34;85.20;101576.20;116128;1298;22403;-68
2022/11/14 10:04:56;;;;;;;;;;;;;;;8.34;85.26;101580.38;116219;1299;22426;-68
2022/11/14 10:07:49;;;;;;;;;;;;;;;8.32;85.30;101581.41;116122;1300;22438;-70
2022/11/14 10:10:46;;;;;;;;;;;;;;;8.32;85.37;101575.52;116161;1306;22390;-68
2022/11/14 10:13:44;;;;;;;;;;;;;;;8.31;85.18;101576.23;116169;1306;24263;-70
2022/11/14 10:16:34;;;;;;;;;;;;;;;8.31;85.20;101578.32;116150;1306;22516;-70
2022/11/14 10:19:23;;;;;;;;;;;;;;;8.36;85.33;101572.54;116214;1287;22461;-69
2022/11/14 10:22:23;;;;;;;;;;;;;;;8.37;85.27;101566.45;116157;1306;22448;-69
2022/11/14 10:25:22;;;;;;;;;;;;;;;8.36;85.29;101566.45;116201;1300;22482;-71
2022/11/14 10:28:46;;;;;;;;;;;;;;;8.37;85.35;101562.98;116204;1287;22493;-70
2022/11/14 10:31:39;;;;;;;;;;;;;;;8.36;85.19;101563.16;116213;1288;22456;-70
2022/11/14 10:34:30;;;;;;;;;;;;;;;8.33;84.91;101557.60;116199;1306;22384;-70
2022/11/14 10:37:23;;;;;;;;;;;;;;;8.34;85.18;101556.02;116187;1285;22635;-70
2022/11/14 10:40:19;;;;;;;;;;;;;;;8.38;85.10;101551.31;116194;1306;24264;-67
2022/11/14 10:43:17;;;;;;;;;;;;;;;8.42;85.05;101542.06;116156;1285;22454;-69
2022/11/14 10:46:11;;;;;;;;;;;;;;;8.46;85.04;101539.23;116132;1287;25295;-69
2022/11/14 10:48:58;;;;;;;;;;;;;;;8.46;84.74;101536.11;116162;1294;22461;-69
2022/11/14 10:51:49;;;;;;;;;;;;;;;8.45;84.70;101534.90;116168;1306;22462;-70
2022/11/14 10:54:43;;;;;;;;;;;;;;;8.45;84.63;101533.52;116217;1297;22463;-69
2022/11/14 10:57:31;;;;;;;;;;;;;;;8.41;84.01;101528.69;116237;1299;22445;-70
2022/11/14 11:00:23;;;;;;;;;;;;;;;8.40;84.20;101526.08;116216;1305;24331;-70
2022/11/14 11:03:11;;;;;;;;;;;;;;;8.41;83.69;101522.59;116186;1293;22518;-70
2022/11/14 11:05:58;;;;;;;;;;;;;;;8.40;83.72;101517.38;116161;1306;22553;-70
2022/11/14 11:12:07;;;;;;;;;;;;;;;8.44;83.87;101507.61;116144;1283;22476;-70
2022/11/14 11:15:13;;;;;;;;;;;;;;;8.45;83.70;101503.42;116134;1303;22516;-70
2022/11/14 11:18:23;;;;;;;;;;;;;;;8.48;83.76;101499.05;116137;1300;23270;-70
2022/11/14 11:21:14;;;;;;;;;;;;;;;8.51;83.70;101494.14;116207;1306;24212;-69
2022/11/14 11:24:01;;;;;;;;;;;;;;;8.56;83.78;101489.05;116193;1306;22451;-68
2022/11/14 11:26:50;;;;;;;;;;;;;;;8.61;84.00;101486.55;116177;1288;22430;-68
2022/11/14 11:29:39;;;;;;;;;;;;;;;8.65;83.59;101484.25;116133;1306;23859;-70
2022/11/14 11:32:28;;;;;;;;;;;;;;;8.63;83.14;101486.00;116194;1288;22448;-70
2022/11/14 11:35:18;;;;;;;;;;;;;;;8.56;83.16;101480.35;116228;1306;22451;-69
2022/11/14 11:38:07;;;;;;;;;;;;;;;8.57;83.42;101474.77;116139;1306;22422;-70
2022/11/14 11:40:59;;;;;;;;;;;;;;;8.60;83.54;101471.61;116140;1285;24390;-69
2022/11/14 11:43:48;;;;;;;;;;;;;;;8.63;83.59;101469.30;116161;1294;25295;-71
2022/11/14 11:46:47;;;;;;;;;;;;;;;8.63;83.31;101466.36;116141;1306;22443;-71
2022/11/14 11:49:43;;;;;;;;;;;;;;;8.62;83.63;101464.80;116102;1293;22458;-70
2022/11/14 11:52:34;;;;;;;;;;;;;;;8.60;83.13;101457.69;116143;1287;22474;-70
2022/11/14 11:55:24;;;;;;;;;;;;;;;8.57;83.18;101452.67;116190;1306;22411;-71
2022/11/14 11:58:19;;;;;;;;;;;;;;;8.58;83.12;101452.16;116216;1305;22467;-70
2022/11/14 12:01:08;;;;;;;;;;;;;;;8.60;82.97;101455.09;116185;1291;22602;-68
2022/11/14 12:03:55;;;;;;;;;;;;;;;8.59;82.39;101459.97;116258;1305;22451;-70
2022/11/14 12:06:45;;;;;;;;;;;;;;;8.58;82.91;101455.29;116203;1291;22898;-70
2022/11/14 12:09:37;;;;;;;;;;;;;;;8.58;82.36;101450.94;115855;1292;515875;-70
2022/11/14 12:12:29;;;;;;;;;;;;;;;8.55;82.63;101438.27;116169;1297;23776;-70
2022/11/14 12:15:20;;;;;;;;;;;;;;;8.52;82.43;101441.97;116183;1284;22457;-70
2022/11/14 12:18:23;;;;;;;;;;;;;;;8.46;82.46;101442.20;116215;1285;25300;-69
2022/11/14 12:21:14;;;;;;;;;;;;;;;8.45;82.52;101439.09;116166;1285;25387;-70
2022/11/14 12:24:29;;;;;;;;;;;;;;;8.43;82.56;101443.64;116200;1287;22486;-70
2022/11/14 12:27:23;;;;;;;;;;;;;;;8.51;83.07;101441.29;116134;1298;22532;-70
2022/11/14 12:30:17;;;;;;;;;;;;;;;8.56;82.83;101438.79;116167;1306;22450;-69
2022/11/14 12:33:09;;;;;;;;;;;;;;;8.55;82.55;101434.63;116205;1306;22444;-70
2022/11/14 12:35:58;;;;;;;;;;;;;;;8.51;82.39;101440.41;116178;1285;23871;-70
2022/11/14 12:38:47;;;;;;;;;;;;;;;8.47;82.52;101444.80;116199;1306;22488;-71
2022/11/14 12:41:36;;;;;;;;;;;;;;;8.45;82.54;101443.42;116162;1306;22421;-70
2022/11/14 12:44:38;;;;;;;;;;;;;;;8.45;82.73;101443.26;116141;1284;22522;-69
2022/11/14 12:47:27;;;;;;;;;;;;;;;8.47;82.77;101443.94;116123;1287;22398;-71
2022/11/14 12:50:40;;;;;;;;;;;;;;;8.52;83.05;101440.57;116178;1287;22436;-71
2022/11/14 12:53:45;;;;;;;;;;;;;;;8.55;82.98;101438.96;116206;1306;22437;-69
2022/11/14 12:56:57;;;;;;;;;;;;;;;8.55;82.99;101437.58;116220;1306;24376;-67
2022/11/14 12:59:54;;;;;;;;;;;;;;;8.51;82.82;101439.02;116126;1291;25248;-70
2022/11/14 13:02:57;;;;;;;;;;;;;;;8.45;82.56;101438.58;116204;1306;22441;-70
2022/11/14 13:05:55;;;;;;;;;;;;;;;8.35;82.48;101443.20;116166;1288;22651;-70
2022/11/14 13:08:53;;;;;;;;;;;;;;;8.26;82.69;101446.05;116193;1283;22487;-70
2022/11/14 13:21:48;;;;;;;;;;;;;;;8.06;82.82;101440.88;116180;1306;22453;-69
2022/11/14 13:25:05;;;;;;;;;;;;;;;8.05;82.77;101435.86;116098;1294;22520;-69
2022/11/14 13:27:54;;;;;;;;;;;;;;;8.07;82.82;101435.31;116145;1300;22449;-69
2022/11/14 13:31:08;;;;;;;;;;;;;;;8.07;82.62;101436.02;116185;1306;22501;-70
2022/11/14 13:33:58;;;;;;;;;;;;;;;8.03;82.31;101433.45;116184;1301;22443;-69
2022/11/14 13:36:48;;;;;;;;;;;;;;;7.97;82.41;101428.65;116202;1305;22449;-69
2022/11/14 13:39:40;;;;;;;;;;;;;;;7.92;82.47;101430.08;116168;1292;22450;-71
2022/11/14 13:42:35;;;;;;;;;;;;;;;7.88;82.67;101431.86;116177;1306;25180;-70
2022/11/14 13:45:40;;;;;;;;;;;;;;;7.87;82.83;101426.83;116220;1292;22481;-70
2022/11/14 13:48:54;;;;;;;;;;;;;;;7.85;83.03;101424.09;116209;1290;22478;-69
2022/11/14 13:51:42;;;;;;;;;;;;;;;7.81;82.89;101422.04;116124;1304;22578;-70
2022/11/14 13:54:29;;;;;;;;;;;;;;;7.79;82.90;101422.94;116152;1291;25576;-70
2022/11/14 13:57:19;;;;;;;;;;;;;;;7.79;82.72;101424.84;116128;1294;22452;-68
2022/11/14 14:00:12;;;;;;;;;;;;;;;7.77;82.52;101427.27;116213;1306;22403;-68
2022/11/14 14:03:21;;;;;;;;;;;;;;;7.77;82.71;101425.02;116166;1288;25199;-69
2022/11/14 14:06:29;;;;;;;;;;;;;;;7.78;82.87;101419.80;116155;1290;22415;-70
2022/11/14 14:09:27;;;;;;;;;;;;;;;7.75;82.63;101418.95;116212;1288;22443;-69
2022/11/14 14:12:38;;;;;;;;;;;;;;;7.69;82.75;101413.28;116146;1301;22444;-70
2022/11/14 14:15:27;;;;;;;;;;;;;;;7.66;82.87;101409.50;116168;1298;22784;-70
2022/11/14 14:18:22;;;;;;;;;;;;;;;7.61;82.87;101404.52;116186;1297;22421;-70
2022/11/14 14:21:14;;;;;;;;;;;;;;;7.57;82.92;101398.13;116141;1297;22467;-70
2022/11/14 14:24:07;;;;;;;;;;;;;;;7.55;82.99;101395.20;116207;1297;22444;-70
2022/11/14 14:27:01;;;;;;;;;;;;;;;7.57;83.12;101388.39;116173;1306;22452;-71
2022/11/14 14:29:54;;;;;;;;;;;;;;;7.58;82.84;101380.91;116163;1306;24264;-71
2022/11/14 14:32:41;;;;;;;;;;;;;;;7.59;82.93;101381.61;116133;1306;22488;-70
2022/11/14 14:35:33;;;;;;;;;;;;;;;7.62;83.23;101377.92;116179;1306;22445;-69
2022/11/14 14:38:29;;;;;;;;;;;;;;;7.60;82.82;101376.03;116143;1306;24274;-70
2022/11/14 14:41:18;;;;;;;;;;;;;;;7.57;83.01;101375.55;116143;1306;22457;-67
2022/11/14 14:44:06;;;;;;;;;;;;;;;7.56;82.95;101374.52;116202;1306;22453;-70
2022/11/14 14:46:54;;;;;;;;;;;;;;;7.53;82.73;101367.59;116172;1287;25371;-69
2022/11/14 14:49:42;;;;;;;;;;;;;;;7.49;82.70;101361.91;116205;1306;24300;-67
2022/11/14 14:52:32;;;;;;;;;;;;;;;7.51;82.92;101360.33;116124;1287;22415;-69